Time;durP1;ratioP1;P1;durP2;ratioP2;P2;SDS_P1;SDS_P2;PMS_P1;PMS_P2;Temp;Humidity;BMP_temperature;BMP_pressure;BME280_temperature;BME280_humidity;BME280_pressure;Samples;Min_cycle;Max_cycle;Signal;HPM_P1;HPM_P2
2022/03/17 00:00:09;;;;;;;43.22;28.42;;;5.10;98.50;;;;;;5059691;28;20017;-78
2022/03/17 00:02:35;;;;;;;42.28;28.15;;;5.10;98.60;;;;;;5061026;28;20039;-79
2022/03/17 00:05:02;;;;;;;45.58;30.23;;;5.00;98.70;;;;;;5063611;28;20033;-78
2022/03/17 00:07:28;;;;;;;42.33;29.75;;;5.00;98.70;;;;;;5060626;28;20120;-78
2022/03/17 00:09:54;;;;;;;43.53;26.42;;;5.00;98.70;;;;;;5060577;28;20036;-80
2022/03/17 00:12:21;;;;;;;38.17;27.05;;;5.00;98.80;;;;;;5060703;28;20029;-79
2022/03/17 00:14:47;;;;;;;39.65;26.75;;;5.00;98.80;;;;;;5058297;28;20029;-79
2022/03/17 00:17:13;;;;;;;46.20;29.05;;;5.00;98.80;;;;;;5059290;28;20533;-79
2022/03/17 00:19:39;;;;;;;41.00;26.52;;;5.00;98.80;;;;;;5059707;28;20021;-78
2022/03/17 00:22:08;;;;;;;38.38;26.00;;;5.00;98.80;;;;;;5059593;28;20041;-78
2022/03/17 00:24:35;;;;;;;40.78;26.50;;;5.00;98.80;;;;;;5059283;28;20013;-79
2022/03/17 00:27:03;;;;;;;43.28;27.33;;;5.00;98.80;;;;;;5057855;28;20017;-78
2022/03/17 00:29:28;;;;;;;41.35;26.55;;;5.00;98.80;;;;;;5056568;28;20059;-79
2022/03/17 00:31:55;;;;;;;36.38;24.02;;;5.00;98.80;;;;;;5056114;28;20051;-79
2022/03/17 00:34:20;;;;;;;39.00;25.00;;;5.00;98.80;;;;;;5062748;28;20488;-79
2022/03/17 00:36:47;;;;;;;38.88;26.33;;;5.00;98.60;;;;;;5059408;28;20053;-78
2022/03/17 00:39:15;;;;;;;41.60;26.83;;;5.00;98.50;;;;;;5064665;28;20024;-78
2022/03/17 00:41:42;;;;;;;40.13;26.25;;;5.00;98.40;;;;;;5057428;28;20021;-79
2022/03/17 00:44:07;;;;;;;37.38;25.85;;;5.00;98.30;;;;;;5057722;28;20477;-79
2022/03/17 00:46:33;;;;;;;37.65;25.75;;;5.00;98.30;;;;;;5057199;28;20044;-79
2022/03/17 00:48:59;;;;;;;36.28;23.30;;;5.00;98.30;;;;;;5057337;28;20052;-79
2022/03/17 00:51:25;;;;;;;39.80;26.17;;;5.00;98.30;;;;;;5057107;28;20032;-79
2022/03/17 00:53:51;;;;;;;36.72;25.02;;;5.00;98.00;;;;;;5056748;28;20109;-78
2022/03/17 00:56:17;;;;;;;34.17;22.38;;;5.10;98.10;;;;;;5056663;28;20067;-79
2022/03/17 00:58:45;;;;;;;37.88;23.98;;;5.10;98.10;;;;;;5056502;28;20094;-79
2022/03/17 01:01:13;;;;;;;37.70;25.25;;;5.10;98.00;;;;;;5056558;28;20052;-79
2022/03/17 01:03:40;;;;;;;36.38;24.95;;;5.10;97.80;;;;;;5054232;28;20025;-78
2022/03/17 01:06:06;;;;;;;38.05;25.20;;;5.10;97.70;;;;;;5055992;28;20043;-78
2022/03/17 01:08:32;;;;;;;37.72;24.05;;;5.10;97.60;;;;;;5055616;28;20107;-78
2022/03/17 01:10:58;;;;;;;39.30;25.13;;;5.10;97.50;;;;;;5061011;28;20466;-78
2022/03/17 01:13:23;;;;;;;31.25;22.33;;;5.10;97.40;;;;;;5054834;28;20049;-78
2022/03/17 01:15:49;;;;;;;40.10;25.10;;;5.10;97.40;;;;;;5054936;28;20021;-78
2022/03/17 01:18:15;;;;;;;39.25;25.70;;;5.10;97.30;;;;;;5054281;28;20036;-78
2022/03/17 01:20:41;;;;;;;33.80;22.70;;;5.00;97.20;;;;;;5055212;28;20201;-78
2022/03/17 01:23:08;;;;;;;35.08;23.17;;;5.00;97.20;;;;;;5054978;28;20021;-78
2022/03/17 01:25:34;;;;;;;35.47;23.45;;;5.00;97.20;;;;;;5054730;28;20106;-78
2022/03/17 01:28:00;;;;;;;36.97;24.95;;;5.00;97.20;;;;;;5054712;28;20033;-78
2022/03/17 01:30:26;;;;;;;37.10;24.35;;;5.10;97.10;;;;;;5054357;28;20023;-77
2022/03/17 01:32:52;;;;;;;36.50;25.05;;;5.00;96.90;;;;;;5055211;28;20082;-77
2022/03/17 01:35:18;;;;;;;38.72;25.98;;;5.10;96.80;;;;;;5054974;28;20037;-77
2022/03/17 01:37:44;;;;;;;35.22;24.00;;;5.00;96.70;;;;;;5055262;28;20021;-78
2022/03/17 01:40:10;;;;;;;39.55;25.80;;;5.00;96.70;;;;;;5052966;28;20111;-77
2022/03/17 01:42:36;;;;;;;35.67;24.63;;;5.00;96.60;;;;;;5053365;28;20082;-78
2022/03/17 01:45:03;;;;;;;36.13;24.40;;;5.00;96.60;;;;;;5054235;28;20029;-78
2022/03/17 01:47:31;;;;;;;37.67;24.80;;;5.00;96.70;;;;;;5054964;28;20052;-78
2022/03/17 01:50:07;;;;;;;33.72;23.17;;;5.00;96.80;;;;;;5054700;28;20029;-78
2022/03/17 01:52:33;;;;;;;36.75;24.15;;;4.90;96.80;;;;;;5053936;28;20486;-78
2022/03/17 01:54:59;;;;;;;36.03;23.85;;;4.90;96.80;;;;;;5054495;28;20389;-78
2022/03/17 01:57:25;;;;;;;36.78;25.65;;;4.90;96.90;;;;;;5052788;28;20040;-78
2022/03/17 01:59:51;;;;;;;36.25;23.50;;;4.90;96.80;;;;;;5054442;28;20021;-78
2022/03/17 02:02:18;;;;;;;32.42;23.30;;;4.90;96.80;;;;;;5054630;28;20071;-78
2022/03/17 02:04:47;;;;;;;33.67;22.42;;;4.90;96.80;;;;;;5054455;28;20031;-78
2022/03/17 02:07:14;;;;;;;33.13;22.02;;;4.90;97.00;;;;;;5054177;28;20104;-78
2022/03/17 02:09:41;;;;;;;32.60;22.23;;;4.90;97.00;;;;;;5052337;28;20040;-77
2022/03/17 02:15:01;;;;;;;35.38;24.08;;;4.90;97.00;;;;;;5054826;28;20150;-78
2022/03/17 02:17:31;;;;;;;35.38;23.65;;;4.80;97.00;;;;;;5053780;28;20028;-77
2022/03/17 02:20:00;;;;;;;33.38;23.27;;;4.80;97.10;;;;;;5055311;28;20025;-77
2022/03/17 02:22:28;;;;;;;35.53;23.27;;;4.80;97.00;;;;;;5055410;28;20088;-77
2022/03/17 02:27:45;;;;;;;33.95;23.30;;;4.80;97.20;;;;;;5055881;28;20377;-79
2022/03/17 02:30:13;;;;;;;32.85;23.00;;;4.80;97.10;;;;;;5056261;28;20021;-77
2022/03/17 02:32:40;;;;;;;34.13;22.60;;;4.80;97.50;;;;;;5058363;28;20028;-79
2022/03/17 02:35:09;;;;;;;36.83;23.92;;;4.80;97.30;;;;;;5059336;28;20074;-78
2022/03/17 02:37:38;;;;;;;33.92;22.67;;;4.70;97.30;;;;;;5059065;28;20028;-79
2022/03/17 02:40:07;;;;;;;31.70;21.92;;;4.80;97.30;;;;;;5059318;28;20025;-79
2022/03/17 02:42:37;;;;;;;30.88;21.00;;;4.80;97.30;;;;;;5055964;28;20475;-79
2022/03/17 02:45:10;;;;;;;29.83;20.83;;;4.80;97.40;;;;;;5055647;28;20025;-78
2022/03/17 02:47:37;;;;;;;29.90;20.95;;;4.80;97.40;;;;;;5059098;28;20104;-78
2022/03/17 02:50:04;;;;;;;32.47;21.67;;;4.80;97.30;;;;;;5059875;28;20504;-78
2022/03/17 02:52:30;;;;;;;39.78;25.85;;;4.80;97.20;;;;;;5058312;28;20052;-79
2022/03/17 02:54:56;;;;;;;36.45;25.40;;;4.90;96.90;;;;;;5054827;28;20025;-79
2022/03/17 02:57:22;;;;;;;33.30;23.13;;;4.80;96.80;;;;;;5058706;28;20095;-78
2022/03/17 02:59:57;;;;;;;36.47;23.83;;;4.80;97.00;;;;;;5059844;28;20060;-77
2022/03/17 03:02:23;;;;;;;36.15;23.83;;;4.80;97.00;;;;;;5066271;28;20055;-78
2022/03/17 03:04:49;;;;;;;33.35;21.95;;;4.80;97.10;;;;;;5060386;28;20029;-79
2022/03/17 03:07:15;;;;;;;33.88;24.00;;;4.80;97.10;;;;;;5075090;28;20093;-79
2022/03/17 03:09:41;;;;;;;40.72;26.35;;;4.90;97.00;;;;;;5070528;28;20033;-77
2022/03/17 03:12:08;;;;;;;41.45;26.23;;;4.80;96.90;;;;;;5072726;28;20043;-78
2022/03/17 03:14:34;;;;;;;36.28;25.33;;;4.80;96.80;;;;;;5070173;28;20033;-79
2022/03/17 03:17:00;;;;;;;39.47;25.65;;;4.80;97.00;;;;;;5058965;28;20032;-79
2022/03/17 03:19:26;;;;;;;36.05;23.85;;;4.80;97.10;;;;;;5060751;28;20022;-79
2022/03/17 03:21:52;;;;;;;36.53;24.17;;;4.70;97.20;;;;;;5058980;28;20081;-78
2022/03/17 03:24:18;;;;;;;33.00;21.70;;;4.80;97.30;;;;;;5058628;28;20017;-77
2022/03/17 03:26:44;;;;;;;33.70;21.75;;;4.80;97.40;;;;;;5058528;28;20048;-78
2022/03/17 03:31:43;;;;;;;31.83;21.35;;;4.80;97.20;;;;;;5052455;28;20032;-78
2022/03/17 03:34:09;;;;;;;33.25;22.13;;;4.80;97.30;;;;;;5059680;28;20036;-78
2022/03/17 03:39:19;;;;;;;33.83;21.85;;;4.80;97.20;;;;;;5062181;28;20048;-78
2022/03/17 03:41:44;;;;;;;36.95;23.90;;;4.80;97.10;;;;;;5061239;28;20461;-78
2022/03/17 03:44:12;;;;;;;31.77;22.88;;;4.80;97.10;;;;;;5059048;28;20048;-79
2022/03/17 03:46:38;;;;;;;32.95;22.23;;;4.80;97.10;;;;;;5059251;28;20021;-78
2022/03/17 03:49:04;;;;;;;33.65;22.00;;;4.80;97.10;;;;;;5058202;28;20445;-79
2022/03/17 03:51:30;;;;;;;30.92;21.08;;;4.80;97.10;;;;;;5059248;28;20017;-80
2022/03/17 03:56:46;;;;;;;31.75;22.98;;;4.80;97.20;;;;;;5059422;28;20059;-78
2022/03/17 03:59:21;;;;;;;29.40;19.85;;;4.80;97.20;;;;;;5057551;28;20027;-78
2022/03/17 04:01:49;;;;;;;35.42;23.38;;;4.80;97.20;;;;;;5052122;28;20033;-78
2022/03/17 04:04:18;;;;;;;35.63;23.10;;;4.80;97.10;;;;;;5056712;28;20056;-78
2022/03/17 04:06:46;;;;;;;36.72;23.48;;;4.70;97.20;;;;;;5056576;28;20436;-78
2022/03/17 04:09:13;;;;;;;32.05;21.73;;;4.70;97.40;;;;;;5057388;28;20056;-78
2022/03/17 04:11:43;;;;;;;31.33;20.85;;;4.70;97.50;;;;;;5057998;28;20029;-79
2022/03/17 04:14:09;;;;;;;32.20;20.85;;;4.70;97.50;;;;;;5056885;28;20118;-79
2022/03/17 04:16:35;;;;;;;33.58;21.90;;;4.70;97.50;;;;;;5057858;28;20025;-79
2022/03/17 04:19:01;;;;;;;37.47;25.15;;;4.70;97.60;;;;;;5057730;28;20509;-78
2022/03/17 04:21:28;;;;;;;37.03;25.50;;;4.70;97.50;;;;;;5058263;28;20039;-78
2022/03/17 04:23:54;;;;;;;37.28;25.48;;;4.60;97.50;;;;;;5057166;28;20339;-79
2022/03/17 04:26:19;;;;;;;38.47;25.40;;;4.60;97.60;;;;;;5058130;28;20021;-78
2022/03/17 04:28:45;;;;;;;36.50;24.13;;;4.50;97.70;;;;;;5056876;28;20025;-79
2022/03/17 04:31:11;;;;;;;37.08;23.90;;;4.50;97.80;;;;;;5058531;28;20039;-78
2022/03/17 04:33:37;;;;;;;38.72;27.25;;;4.50;97.90;;;;;;5061386;28;20029;-79
2022/03/17 04:36:07;;;;;;;39.72;25.48;;;4.50;98.00;;;;;;5061998;28;20029;-79
2022/03/17 04:38:33;;;;;;;36.33;25.75;;;4.40;98.10;;;;;;5060015;28;20046;-78
2022/03/17 04:40:59;;;;;;;34.05;23.02;;;4.40;98.10;;;;;;5059087;28;20089;-78
2022/03/17 04:43:25;;;;;;;35.92;23.73;;;4.40;98.20;;;;;;5058580;28;20057;-78
2022/03/17 04:45:51;;;;;;;40.65;27.00;;;4.50;98.30;;;;;;5058546;28;20025;-78
2022/03/17 04:48:17;;;;;;;38.03;25.20;;;4.50;98.20;;;;;;5056815;28;20436;-78
2022/03/17 04:50:43;;;;;;;42.30;26.35;;;4.50;98.20;;;;;;5056430;28;20033;-78
2022/03/17 04:53:27;;;;;;;41.55;25.65;;;4.40;98.20;;;;;;5057168;28;20339;-79
2022/03/17 04:55:54;;;;;;;41.97;27.20;;;4.40;98.30;;;;;;5041358;28;20056;-79
2022/03/17 04:58:20;;;;;;;37.53;25.52;;;4.40;98.40;;;;;;5037181;28;20037;-79
2022/03/17 05:00:46;;;;;;;40.60;27.63;;;4.40;98.40;;;;;;5039296;28;20192;-78
2022/03/17 05:03:12;;;;;;;42.75;28.70;;;4.40;98.70;;;;;;5055241;28;20032;-79
2022/03/17 05:05:39;;;;;;;43.03;27.23;;;4.30;98.50;;;;;;5055345;28;20550;-78
2022/03/17 05:08:06;;;;;;;47.22;28.85;;;4.30;98.60;;;;;;5056351;28;20032;-78
2022/03/17 05:10:35;;;;;;;39.55;27.67;;;4.30;98.80;;;;;;5056489;28;20044;-81
2022/03/17 05:13:06;;;;;;;41.17;26.27;;;4.30;98.80;;;;;;5057853;28;20048;-81
2022/03/17 05:15:33;;;;;;;49.33;27.88;;;4.20;98.90;;;;;;5055962;28;20025;-83
2022/03/17 05:17:59;;;;;;;43.63;27.77;;;4.20;99.10;;;;;;5056456;28;20084;-82
2022/03/17 05:20:25;;;;;;;43.20;28.83;;;4.30;99.10;;;;;;5056119;28;20056;-82
2022/03/17 05:22:51;;;;;;;44.53;27.85;;;4.30;99.00;;;;;;5055993;28;20088;-83
2022/03/17 05:25:18;;;;;;;43.00;27.83;;;4.30;99.00;;;;;;5055588;28;20115;-81
2022/03/17 05:27:45;;;;;;;39.85;26.02;;;4.20;99.10;;;;;;5057108;28;20025;-83
2022/03/17 05:30:15;;;;;;;40.97;25.98;;;4.30;99.10;;;;;;5061063;28;20044;-84
2022/03/17 05:32:42;;;;;;;39.28;24.98;;;4.30;99.20;;;;;;5035712;28;20030;-82
2022/03/17 05:35:09;;;;;;;34.13;22.75;;;4.30;99.20;;;;;;5049657;28;20084;-80
2022/03/17 05:37:35;;;;;;;37.45;24.33;;;4.30;99.20;;;;;;5045864;28;20036;-83
2022/03/17 05:40:05;;;;;;;35.90;24.48;;;4.30;99.30;;;;;;5041617;28;20025;-82
2022/03/17 05:42:31;;;;;;;41.30;26.83;;;4.30;99.30;;;;;;5058515;28;20013;-83
2022/03/17 05:44:57;;;;;;;44.65;26.92;;;4.40;99.20;;;;;;5057010;28;20032;-84
2022/03/17 05:47:23;;;;;;;40.63;25.95;;;4.40;99.10;;;;;;5056063;28;20413;-83
2022/03/17 05:49:49;;;;;;;39.72;26.08;;;4.40;99.10;;;;;;5056853;28;20025;-82
2022/03/17 05:52:15;;;;;;;40.92;26.77;;;4.40;99.10;;;;;;5055297;28;20040;-83
2022/03/17 05:54:41;;;;;;;42.33;28.10;;;4.40;99.10;;;;;;5057449;28;20408;-83
2022/03/17 05:57:10;;;;;;;42.65;27.73;;;4.40;98.90;;;;;;5057166;28;20021;-82
2022/03/17 05:59:39;;;;;;;41.08;25.90;;;4.50;99.00;;;;;;5056150;28;20066;-83
2022/03/17 06:02:05;;;;;;;45.10;28.80;;;4.50;99.00;;;;;;5060285;28;20021;-83
2022/03/17 06:04:32;;;;;;;44.25;27.77;;;4.50;98.80;;;;;;5057746;28;20375;-82
2022/03/17 06:06:57;;;;;;;39.20;26.63;;;4.50;98.70;;;;;;5065847;28;20029;-83
2022/03/17 06:09:23;;;;;;;37.42;25.77;;;4.60;98.80;;;;;;5060737;28;20017;-84
2022/03/17 06:11:49;;;;;;;37.97;24.67;;;4.70;98.80;;;;;;5063107;28;20029;-84
2022/03/17 06:14:15;;;;;;;37.60;24.50;;;4.80;98.70;;;;;;5071305;28;20087;-83
2022/03/17 06:16:40;;;;;;;37.83;25.33;;;4.90;98.40;;;;;;5062086;28;20033;-82
2022/03/17 06:19:06;;;;;;;37.80;25.30;;;4.90;98.20;;;;;;5037533;28;20022;-82
2022/03/17 06:21:32;;;;;;;35.45;24.50;;;5.00;98.20;;;;;;5042194;28;20017;-83
2022/03/17 06:23:57;;;;;;;43.85;28.17;;;5.10;97.90;;;;;;5058057;28;20067;-82
2022/03/17 06:26:23;;;;;;;39.47;26.17;;;5.10;97.50;;;;;;5069738;28;20025;-81
2022/03/17 06:28:49;;;;;;;39.05;26.52;;;5.20;97.50;;;;;;5073008;28;20029;-81
2022/03/17 06:31:15;;;;;;;39.15;25.90;;;5.20;97.40;;;;;;5072670;28;20047;-80
2022/03/17 06:33:41;;;;;;;37.72;23.95;;;5.30;97.30;;;;;;5072675;28;20064;-82
2022/03/17 06:36:06;;;;;;;35.53;22.95;;;5.40;97.10;;;;;;5062284;28;20033;-82
2022/03/17 06:38:32;;;;;;;39.78;26.45;;;5.50;96.90;;;;;;5067377;28;20017;-82
2022/03/17 06:40:58;;;;;;;44.08;28.17;;;5.50;96.40;;;;;;5061951;28;20025;-82
2022/03/17 06:43:24;;;;;;;39.55;27.80;;;5.50;96.10;;;;;;5059213;28;20021;-81
2022/03/17 06:45:50;;;;;;;37.45;25.05;;;5.60;96.30;;;;;;5061567;28;20036;-81
2022/03/17 06:48:15;;;;;;;36.10;25.05;;;5.80;96.20;;;;;;5061738;28;20051;-81
2022/03/17 06:50:41;;;;;;;36.15;22.95;;;5.80;95.80;;;;;;5059654;28;20036;-81
2022/03/17 06:53:07;;;;;;;35.67;23.52;;;5.90;95.70;;;;;;5059715;28;20044;-81
2022/03/17 06:55:33;;;;;;;34.35;24.65;;;6.10;95.40;;;;;;5057096;28;20032;-83
2022/03/17 06:58:00;;;;;;;36.55;25.55;;;6.20;95.00;;;;;;5057759;28;20473;-83
2022/03/17 07:00:26;;;;;;;36.50;24.63;;;6.20;94.60;;;;;;5063692;28;20009;-82
2022/03/17 07:02:51;;;;;;;33.10;24.02;;;6.30;94.60;;;;;;5071883;28;20036;-82
2022/03/17 07:05:17;;;;;;;35.97;24.35;;;6.40;94.60;;;;;;5070485;28;20033;-81
2022/03/17 07:07:43;;;;;;;32.72;22.65;;;6.60;94.30;;;;;;5069709;28;20045;-81
2022/03/17 07:10:11;;;;;;;36.83;23.17;;;6.80;93.80;;;;;;5067620;28;20036;-82
2022/03/17 07:12:38;;;;;;;38.65;26.13;;;6.90;93.40;;;;;;5066184;28;20104;-81
2022/03/17 07:15:05;;;;;;;43.70;25.85;;;6.80;92.90;;;;;;5072574;28;20036;-82
2022/03/17 07:17:40;;;;;;;34.30;23.77;;;6.80;92.90;;;;;;5070784;28;20040;-81
2022/03/17 07:20:19;;;;;;;32.65;22.77;;;6.90;92.90;;;;;;5063077;28;20021;-82
2022/03/17 07:22:47;;;;;;;31.38;22.33;;;7.10;92.80;;;;;;5060284;28;20493;-85
2022/03/17 07:25:19;;;;;;;29.58;21.83;;;7.20;92.40;;;;;;5057359;28;20021;-81
2022/03/17 07:27:46;;;;;;;32.10;21.85;;;7.40;92.30;;;;;;5057815;28;20021;-82
2022/03/17 07:30:19;;;;;;;30.80;21.85;;;7.60;91.90;;;;;;5056682;28;20060;-83
2022/03/17 07:32:46;;;;;;;;;;;7.80;91.20;;;;;;5035409;28;20029;-82
2022/03/17 07:35:12;;;;;;;30.02;21.00;;;7.80;90.70;;;;;;5050861;28;19920;-80
2022/03/17 07:37:38;;;;;;;25.50;20.20;;;7.90;90.30;;;;;;5057661;28;20021;-82
2022/03/17 07:40:05;;;;;;;25.50;19.63;;;8.10;90.10;;;;;;5061098;28;20477;-82
2022/03/17 07:42:31;;;;;;;25.73;18.13;;;8.20;89.20;;;;;;5062168;28;20092;-84
2022/03/17 07:44:57;;;;;;;22.13;16.73;;;8.30;88.20;;;;;;5063435;28;20465;-82
2022/03/17 07:47:22;;;;;;;23.13;17.30;;;8.40;87.70;;;;;;5061236;28;20063;-81
2022/03/17 07:49:50;;;;;;;29.20;19.45;;;8.40;86.80;;;;;;5063902;28;20198;-81
2022/03/17 07:52:15;;;;;;;26.85;19.95;;;8.30;86.40;;;;;;5065509;28;20028;-82
2022/03/17 07:54:41;;;;;;;30.70;21.95;;;8.10;86.20;;;;;;5063389;28;20464;-82
2022/03/17 07:57:11;;;;;;;27.73;20.65;;;8.00;86.40;;;;;;5070343;28;20025;-82
2022/03/17 07:59:38;;;;;;;28.30;20.50;;;7.90;86.90;;;;;;5064995;28;20013;-82
2022/03/17 08:02:04;;;;;;;28.25;19.92;;;8.00;87.40;;;;;;5060872;28;20032;-83
2022/03/17 08:04:31;;;;;;;25.20;18.80;;;8.20;87.20;;;;;;5075543;28;20019;-83
2022/03/17 08:07:00;;;;;;;23.15;18.23;;;8.40;87.00;;;;;;5066271;28;20029;-84
2022/03/17 08:09:33;;;;;;;24.40;17.58;;;8.50;86.10;;;;;;5059493;28;20026;-83
2022/03/17 08:12:06;;;;;;;23.25;16.58;;;8.70;85.30;;;;;;5047621;28;20064;-83
2022/03/17 08:14:32;;;;;;;22.85;17.45;;;8.90;84.50;;;;;;5044398;28;20087;-79
2022/03/17 08:17:00;;;;;;;21.23;16.27;;;9.00;83.70;;;;;;5063589;28;20024;-79
2022/03/17 08:19:33;;;;;;;21.52;15.80;;;9.00;82.50;;;;;;5063536;28;20082;-80
2022/03/17 08:21:59;;;;;;;20.80;15.90;;;9.00;82.00;;;;;;5064545;28;20044;-80
2022/03/17 08:24:25;;;;;;;21.10;15.55;;;9.00;81.70;;;;;;5065783;28;20454;-81
2022/03/17 08:26:53;;;;;;;20.45;16.02;;;9.10;81.20;;;;;;5064970;28;20057;-81
2022/03/17 08:29:19;;;;;;;22.77;16.70;;;9.20;81.10;;;;;;5063860;28;20466;-81
2022/03/17 08:31:44;;;;;;;22.27;16.42;;;9.20;80.90;;;;;;5075615;28;20040;-80
2022/03/17 08:34:10;;;;;;;23.67;18.02;;;9.30;80.40;;;;;;5077052;28;20020;-79
2022/03/17 08:36:36;;;;;;;24.80;17.63;;;9.30;79.70;;;;;;5076885;28;20063;-81
2022/03/17 08:39:01;;;;;;;22.90;16.58;;;9.10;79.90;;;;;;5073271;28;20037;-81
2022/03/17 08:41:27;;;;;;;23.92;17.15;;;9.10;80.10;;;;;;5067914;28;20024;-81
2022/03/17 08:43:53;;;;;;;20.05;14.85;;;9.00;80.40;;;;;;5065366;28;20086;-81
2022/03/17 08:49:20;;;;;;;25.60;18.23;;;9.30;80.30;;;;;;5066132;28;20048;-79
2022/03/17 08:51:54;;;;;;;20.50;15.50;;;9.20;79.00;;;;;;5065474;28;20093;-79
2022/03/17 08:54:35;;;;;;;19.13;14.73;;;9.30;79.80;;;;;;5068119;28;20058;-82
2022/03/17 08:57:05;;;;;;;21.05;15.63;;;9.40;79.60;;;;;;5065519;28;20021;-84
2022/03/17 08:59:33;;;;;;;18.63;14.02;;;9.60;79.00;;;;;;5064591;28;20035;-82
2022/03/17 09:02:18;;;;;;;18.98;14.23;;;9.70;79.00;;;;;;5063079;28;20346;-81
2022/03/17 09:04:44;;;;;;;21.25;15.40;;;9.80;78.40;;;;;;5064600;28;20039;-82
2022/03/17 09:07:10;;;;;;;21.17;14.60;;;9.80;78.20;;;;;;5065240;28;20025;-82
2022/03/17 09:13:32;;;;;;;20.23;15.77;;;9.90;78.30;;;;;;5025849;28;20041;-83
2022/03/17 09:15:58;;;;;;;22.70;16.83;;;10.00;77.80;;;;;;5041844;28;20045;-80
2022/03/17 09:18:24;;;;;;;21.70;16.55;;;9.90;77.30;;;;;;5058638;28;20025;-80
2022/03/17 09:20:50;;;;;;;21.27;15.32;;;9.70;77.80;;;;;;5062117;28;20158;-82
2022/03/17 09:23:16;;;;;;;17.92;14.30;;;9.60;78.70;;;;;;5062041;28;20484;-83
2022/03/17 09:25:43;;;;;;;18.20;14.15;;;9.60;79.00;;;;;;5061913;28;20043;-86
2022/03/17 09:28:08;;;;;;;21.85;16.67;;;9.60;79.10;;;;;;5063086;28;20016;-83
2022/03/17 09:30:34;;;;;;;21.42;15.77;;;9.60;78.40;;;;;;5075070;28;20097;-83
2022/03/17 09:33:03;;;;;;;25.08;17.05;;;9.50;78.90;;;;;;5057661;28;20036;-83
2022/03/17 09:35:29;;;;;;;21.75;14.85;;;9.50;79.30;;;;;;5059182;28;20107;-83
2022/03/17 09:37:54;;;;;;;19.23;14.45;;;9.70;79.60;;;;;;5059466;28;20021;-84
2022/03/17 09:40:20;;;;;;;16.60;13.18;;;9.80;78.80;;;;;;5059243;28;20083;-84
2022/03/17 09:42:47;;;;;;;22.50;16.55;;;10.00;79.00;;;;;;5058770;28;20331;-84
2022/03/17 09:45:14;;;;;;;18.60;15.63;;;10.10;77.80;;;;;;5058382;28;20086;-83
2022/03/17 09:47:42;;;;;;;27.70;18.15;;;10.30;78.00;;;;;;5057954;28;20032;-83
2022/03/17 09:50:11;;;;;;;25.95;18.80;;;10.30;76.30;;;;;;5057493;28;20021;-83
2022/03/17 09:52:42;;;;;;;22.90;17.02;;;10.20;76.40;;;;;;5060268;28;20116;-83
2022/03/17 09:55:10;;;;;;;26.20;19.33;;;10.20;76.80;;;;;;5070062;28;20032;-82
2022/03/17 09:57:42;;;;;;;26.75;20.40;;;10.40;76.30;;;;;;5068757;28;20074;-83
2022/03/17 10:00:12;;;;;;;24.08;19.17;;;10.60;75.40;;;;;;5066670;28;20093;-83
2022/03/17 10:02:39;;;;;;;23.98;18.35;;;10.50;74.80;;;;;;5068047;28;20029;-83
2022/03/17 10:05:06;;;;;;;20.08;16.33;;;10.60;75.20;;;;;;5053338;28;20078;-83
2022/03/17 10:07:39;;;;;;;22.35;17.00;;;10.80;74.90;;;;;;5052762;28;20040;-83
2022/03/17 10:10:07;;;;;;;19.50;16.00;;;10.80;74.00;;;;;;5066603;28;20021;-82
2022/03/17 10:12:34;;;;;;;20.08;14.73;;;11.00;73.80;;;;;;5073641;28;20021;-83
2022/03/17 10:15:01;;;;;;;16.38;13.23;;;11.20;73.50;;;;;;5056703;28;20033;-83
2022/03/17 10:17:45;;;;;;;23.92;17.60;;;11.50;72.90;;;;;;5073958;28;20051;-85
2022/03/17 10:20:25;;;;;;;20.95;16.80;;;11.40;71.10;;;;;;5073810;28;20028;-83
2022/03/17 10:22:58;;;;;;;25.30;17.67;;;11.30;72.20;;;;;;5074386;28;20044;-83
2022/03/17 10:25:32;;;;;;;25.65;19.38;;;11.40;71.60;;;;;;5075266;28;20067;-84
2022/03/17 10:27:59;;;;;;;27.55;18.13;;;11.40;70.90;;;;;;5074990;28;20013;-84
2022/03/17 10:30:34;;;;;;;24.30;17.30;;;11.60;71.50;;;;;;5074778;28;20083;-84
2022/03/17 10:33:20;;;;;;;21.02;16.60;;;11.60;70.90;;;;;;5074411;28;20018;-84
2022/03/17 10:35:49;;;;;;;19.40;14.77;;;11.70;71.10;;;;;;5075642;28;20051;-84
2022/03/17 10:38:27;;;;;;;19.65;14.00;;;11.90;71.00;;;;;;5057829;28;20029;-84
2022/03/17 10:41:12;;;;;;;20.02;14.30;;;11.90;69.90;;;;;;5048203;28;20025;-83
2022/03/17 10:43:39;;;;;;;18.05;14.68;;;11.80;69.50;;;;;;5054320;28;20045;-84
2022/03/17 10:46:12;;;;;;;19.55;13.68;;;11.80;69.90;;;;;;5054825;28;20030;-83
2022/03/17 10:49:02;;;;;;;13.88;11.65;;;12.00;70.90;;;;;;5071193;28;20136;-84
2022/03/17 10:51:46;;;;;;;17.63;13.00;;;12.30;69.90;;;;;;5068997;28;20036;-84
2022/03/17 10:54:18;;;;;;;19.58;14.55;;;12.30;69.20;;;;;;5075666;28;20056;-84
2022/03/17 10:57:04;;;;;;;22.67;15.60;;;12.30;68.30;;;;;;5074879;28;20163;-84
2022/03/17 10:59:42;;;;;;;21.70;16.52;;;12.30;67.90;;;;;;5073961;28;20033;-85
2022/03/17 11:02:09;;;;;;;19.65;15.00;;;12.00;68.50;;;;;;5073680;28;20053;-85
2022/03/17 11:04:37;;;;;;;19.15;14.93;;;12.10;69.50;;;;;;5074234;28;20049;-84
2022/03/17 11:07:11;;;;;;;18.80;14.48;;;12.10;69.20;;;;;;5073385;28;20072;-85
2022/03/17 11:09:40;;;;;;;19.50;14.70;;;12.30;69.10;;;;;;5072978;28;20045;-84
2022/03/17 11:12:07;;;;;;;24.80;20.17;;;12.40;68.00;;;;;;5073322;28;20036;-84
2022/03/17 11:14:34;;;;;;;26.98;19.42;;;12.20;67.20;;;;;;5073182;28;20049;-84
2022/03/17 11:17:03;;;;;;;27.45;20.30;;;11.80;68.50;;;;;;5076450;28;20069;-84
2022/03/17 11:19:29;;;;;;;31.30;21.23;;;11.50;69.20;;;;;;5076918;28;20044;-84
2022/03/17 11:22:05;;;;;;;25.65;19.98;;;11.40;70.10;;;;;;5076524;28;20032;-85
2022/03/17 11:24:31;;;;;;;23.25;18.05;;;11.30;70.50;;;;;;5076422;28;20021;-85
2022/03/17 11:27:11;;;;;;;23.90;19.27;;;11.50;70.90;;;;;;5077802;28;20080;-84
2022/03/17 11:29:46;;;;;;;25.83;20.00;;;11.70;70.40;;;;;;5077800;28;20040;-85
2022/03/17 11:32:29;;;;;;;24.02;17.67;;;11.70;70.00;;;;;;5076917;28;20032;-85
2022/03/17 11:35:18;;;;;;;27.75;17.77;;;11.90;70.10;;;;;;5076255;28;20100;-84
2022/03/17 11:37:44;;;;;;;23.30;18.02;;;12.10;69.30;;;;;;5076209;28;20052;-85
2022/03/17 11:40:19;;;;;;;25.15;19.70;;;12.20;68.50;;;;;;5075237;28;20025;-84
2022/03/17 11:43:03;;;;;;;34.35;21.58;;;12.00;68.70;;;;;;5071151;28;20035;-83
2022/03/17 11:45:37;;;;;;;25.52;19.38;;;12.00;68.10;;;;;;5070466;28;20060;-83
2022/03/17 11:48:09;;;;;;;27.05;18.70;;;12.00;68.90;;;;;;5073016;28;20025;-82
2022/03/17 11:50:36;;;;;;;30.05;19.80;;;12.00;69.10;;;;;;5075797;28;20031;-83
2022/03/17 11:53:07;;;;;;;23.13;18.13;;;11.90;69.00;;;;;;5076541;28;20115;-83
2022/03/17 11:55:38;;;;;;;28.55;18.48;;;12.00;69.20;;;;;;5074865;28;20024;-84
2022/03/17 11:58:16;;;;;;;25.42;19.20;;;12.00;69.00;;;;;;5076645;28;20037;-83
2022/03/17 12:00:52;;;;;;;23.58;18.33;;;12.00;68.80;;;;;;5066002;28;20085;-84
2022/03/17 12:03:32;;;;;;;26.35;18.23;;;12.00;69.10;;;;;;5072201;28;20029;-84
2022/03/17 12:06:25;;;;;;;24.58;18.80;;;12.10;68.70;;;;;;5070632;28;20025;-83
2022/03/17 12:09:01;;;;;;;;;;;12.20;68.50;;;;;;5066650;28;20032;-83
2022/03/17 12:11:32;;;;;;;25.15;18.13;;;12.30;68.00;;;;;;5068286;28;19909;-84
2022/03/17 12:14:22;;;;;;;21.60;16.17;;;12.20;67.80;;;;;;5070927;28;20104;-84
2022/03/17 12:16:49;;;;;;;25.35;18.05;;;12.20;68.20;;;;;;5066548;28;20036;-82
2022/03/17 12:19:34;;;;;;;22.05;15.68;;;12.20;68.70;;;;;;5061042;28;20021;-81
2022/03/17 12:22:03;;;;;;;18.63;13.98;;;12.30;68.70;;;;;;5065763;28;20105;-82
2022/03/17 12:24:40;;;;;;;23.98;17.30;;;12.40;68.40;;;;;;5066733;28;20029;-83
2022/03/17 12:27:22;;;;;;;21.00;15.77;;;12.50;67.60;;;;;;5063190;28;20025;-82
2022/03/17 12:29:55;;;;;;;25.95;19.45;;;12.40;68.00;;;;;;5064258;28;20029;-82
2022/03/17 12:32:22;;;;;;;24.08;18.02;;;12.40;67.60;;;;;;5066545;28;20025;-82
2022/03/17 12:34:50;;;;;;;28.38;20.00;;;12.30;67.70;;;;;;5063566;28;20382;-83
2022/03/17 12:37:18;;;;;;;24.63;17.27;;;12.20;68.00;;;;;;5064521;28;20025;-82
2022/03/17 12:39:52;;;;;;;24.38;19.70;;;12.10;68.50;;;;;;5064572;28;20044;-82
2022/03/17 12:42:52;;;;;;;28.70;19.30;;;12.00;69.00;;;;;;5064895;28;20025;-82
2022/03/17 12:45:23;;;;;;;33.83;21.27;;;11.90;69.50;;;;;;5022568;28;20041;-82
2022/03/17 12:47:56;;;;;;;24.33;19.02;;;11.80;68.90;;;;;;5063683;28;20029;-84
2022/03/17 12:50:22;;;;;;;28.98;20.20;;;11.70;69.80;;;;;;5063006;28;20059;-83
2022/03/17 12:52:49;;;;;;;30.52;20.75;;;11.70;70.90;;;;;;5065332;28;20033;-82
2022/03/17 12:55:21;;;;;;;27.67;18.92;;;11.70;70.80;;;;;;5066938;28;20033;-83
2022/03/17 12:57:47;;;;;;;23.13;16.42;;;11.70;71.20;;;;;;5065590;28;20017;-83
2022/03/17 13:00:16;;;;;;;26.27;19.60;;;11.70;71.30;;;;;;5074974;28;20041;-82
2022/03/17 13:02:50;;;;;;;30.20;20.38;;;11.90;70.90;;;;;;5065474;28;20021;-83